createdAt,value
2018-09-24T00:01:49.777Z,73.40
2018-09-24T00:04:17.931Z,71.40
2018-09-24T00:06:46.091Z,73.20
2018-09-24T00:09:14.264Z,71.60
2018-09-24T00:11:42.472Z,73.60
2018-09-24T00:14:10.641Z,73.30
2018-09-24T00:16:38.841Z,71.60
2018-09-24T00:19:07.726Z,69.70
2018-09-24T00:21:35.881Z,70.60
2018-09-24T00:24:04.132Z,68.60
2018-09-24T00:26:32.387Z,70.40
2018-09-24T00:29:00.471Z,70.70
2018-09-24T00:31:28.793Z,70.60
2018-09-24T00:33:56.877Z,70.30
2018-09-24T00:36:25.036Z,72.40
2018-09-24T00:38:53.188Z,71.70
2018-09-24T00:41:21.393Z,71.70
2018-09-24T00:43:49.551Z,71.00
2018-09-24T00:46:17.700Z,71.60
2018-09-24T00:48:45.793Z,70.10
2018-09-24T00:51:14.053Z,69.70
2018-09-24T00:53:42.216Z,70.70
2018-09-24T00:56:10.366Z,71.10
2018-09-24T00:58:38.607Z,70.10
2018-09-24T01:01:06.787Z,69.20
2018-09-24T01:03:34.914Z,70.50
2018-09-24T01:06:03.126Z,70.30
2018-09-24T01:08:31.243Z,69.40
2018-09-24T01:10:59.424Z,70.90
2018-09-24T01:13:27.566Z,70.90
2018-09-24T01:15:55.672Z,69.70
2018-09-24T01:18:23.816Z,70.90
2018-09-24T01:20:51.935Z,70.50
2018-09-24T01:23:20.152Z,70.00
2018-09-24T01:25:48.317Z,69.20
2018-09-24T01:28:16.568Z,69.60
2018-09-24T01:30:44.723Z,70.20
2018-09-24T01:33:12.877Z,69.60
2018-09-24T01:35:41.060Z,68.20
2018-09-24T01:38:09.337Z,69.40
2018-09-24T01:40:37.524Z,69.50
2018-09-24T01:43:05.735Z,68.50
2018-09-24T01:45:33.843Z,68.40
2018-09-24T01:48:01.932Z,69.30
2018-09-24T01:50:30.082Z,69.60
2018-09-24T01:53:03.988Z,70.00
2018-09-24T01:55:32.139Z,70.50
2018-09-24T01:58:00.337Z,69.20
2018-09-24T02:00:28.448Z,70.30
2018-09-24T02:02:56.621Z,69.50
2018-09-24T02:05:24.923Z,70.70
2018-09-24T02:07:53.058Z,70.10
2018-09-24T02:10:24.834Z,70.10
2018-09-24T02:12:54.947Z,69.50
2018-09-24T02:15:30.466Z,70.60
2018-09-24T02:17:58.831Z,70.50
2018-09-24T02:20:27.102Z,70.60
2018-09-24T02:22:55.250Z,72.40
2018-09-24T02:25:23.415Z,71.10
2018-09-24T02:27:51.655Z,71.00
2018-09-24T02:30:20.172Z,71.30
2018-09-24T02:32:48.328Z,71.40
2018-09-24T02:35:16.471Z,71.50
2018-09-24T02:37:44.614Z,72.20
2018-09-24T02:40:25.209Z,71.60
2018-09-24T02:42:53.376Z,72.10
2018-09-24T02:45:21.611Z,72.30
2018-09-24T02:47:49.763Z,72.90
2018-09-24T02:50:17.884Z,72.90
2018-09-24T02:52:46.045Z,72.90
2018-09-24T02:55:16.935Z,72.10
2018-09-24T02:57:45.387Z,72.10
2018-09-24T03:00:20.075Z,72.80
2018-09-24T03:02:48.225Z,72.00
2018-09-24T03:05:16.388Z,73.00
2018-09-24T03:07:44.544Z,71.50
2018-09-24T03:10:12.647Z,72.70
2018-09-24T03:12:48.672Z,73.00
2018-09-24T03:15:16.820Z,71.20
2018-09-24T03:17:45.043Z,72.20
2018-09-24T03:20:13.280Z,71.50
2018-09-24T03:22:41.396Z,71.50
2018-09-24T03:25:16.229Z,71.90
2018-09-24T03:27:44.566Z,72.80
2018-09-24T03:30:13.302Z,71.10
2018-09-24T03:32:41.509Z,71.40
2018-09-24T03:35:09.707Z,71.60
2018-09-24T03:37:37.830Z,72.80
2018-09-24T03:40:06.020Z,72.00
2018-09-24T03:42:34.198Z,72.10
2018-09-24T03:45:02.380Z,71.60
2018-09-24T03:47:30.675Z,71.90
2018-09-24T03:49:58.832Z,73.00
2018-09-24T03:52:27.007Z,71.60
2018-09-24T03:54:55.168Z,71.70
2018-09-24T03:57:23.268Z,71.70
2018-09-24T03:59:51.416Z,71.00
2018-09-24T04:02:19.540Z,71.50
2018-09-24T04:04:53.419Z,71.60
2018-09-24T04:07:27.291Z,71.40
2018-09-24T04:10:01.252Z,72.90
2018-09-24T04:12:34.768Z,72.90
2018-09-24T04:15:08.475Z,72.80
2018-09-24T04:17:42.212Z,73.80
2018-09-24T04:20:16.059Z,73.80
2018-09-24T04:22:49.876Z,74.20
2018-09-24T04:25:23.519Z,74.00
2018-09-24T04:27:57.257Z,74.10
2018-09-24T04:30:30.979Z,73.70
2018-09-24T04:33:04.813Z,73.60
2018-09-24T04:35:38.588Z,74.90
2018-09-24T04:38:12.266Z,74.00
2018-09-24T04:40:46.089Z,74.50
2018-09-24T04:43:19.940Z,74.80
2018-09-24T04:45:53.757Z,74.00
2018-09-24T04:48:27.436Z,75.10
2018-09-24T04:51:01.202Z,74.20
2018-09-24T04:53:34.867Z,75.00
2018-09-24T04:56:08.823Z,75.30
2018-09-24T04:58:42.551Z,74.90
2018-09-24T05:01:16.270Z,74.80
2018-09-24T05:03:49.951Z,75.60
2018-09-24T05:06:23.644Z,75.70
2018-09-24T05:08:57.513Z,76.30
2018-09-24T05:11:31.181Z,75.80
2018-09-24T05:14:04.903Z,76.50
2018-09-24T05:16:38.620Z,75.70
2018-09-24T05:19:12.420Z,75.60
2018-09-24T05:21:46.290Z,75.50
2018-09-24T05:24:20.095Z,77.00
2018-09-24T05:26:53.906Z,76.60
2018-09-24T05:29:27.892Z,76.30
2018-09-24T05:32:01.802Z,77.00
2018-09-24T05:34:35.815Z,77.90
2018-09-24T05:37:09.621Z,75.50
2018-09-24T05:39:43.346Z,74.50
2018-09-24T05:42:16.999Z,75.20
2018-09-24T05:44:50.799Z,75.50
2018-09-24T05:47:25.215Z,75.80
2018-09-24T05:49:59.929Z,76.40
2018-09-24T05:52:33.687Z,75.90
2018-09-24T05:55:07.401Z,75.60
2018-09-24T05:57:41.290Z,75.70
2018-09-24T06:00:15.082Z,76.60
2018-09-24T06:02:48.832Z,76.10
2018-09-24T06:05:22.564Z,76.90
2018-09-24T06:07:56.507Z,77.30
2018-09-24T06:10:30.451Z,76.80
2018-09-24T06:13:04.208Z,76.30
2018-09-24T06:15:38.152Z,75.40
2018-09-24T06:18:12.121Z,76.10
2018-09-24T06:20:45.889Z,76.30
2018-09-24T06:23:19.792Z,75.30
2018-09-24T06:25:53.505Z,75.10
2018-09-24T06:28:27.493Z,75.20
2018-09-24T06:31:01.439Z,75.10
2018-09-24T06:33:35.286Z,74.10
2018-09-24T06:36:09.045Z,73.70
2018-09-24T06:38:42.840Z,74.80
2018-09-24T06:41:16.740Z,74.30
2018-09-24T06:43:50.428Z,73.70
2018-09-24T06:46:24.242Z,73.80
2018-09-24T06:48:57.974Z,73.70
2018-09-24T06:51:31.843Z,72.80
2018-09-24T06:54:05.838Z,73.40
2018-09-24T06:56:39.726Z,71.90
2018-09-24T06:59:13.460Z,72.30
2018-09-24T07:01:47.371Z,72.00
2018-09-24T07:04:21.299Z,70.40
2018-09-24T07:06:55.190Z,70.30
2018-09-24T07:09:29.018Z,70.60
2018-09-24T07:12:02.763Z,67.60
2018-09-24T07:14:36.490Z,68.80
2018-09-24T07:17:10.199Z,69.30
2018-09-24T07:19:43.884Z,69.30
2018-09-24T07:22:17.808Z,69.10
2018-09-24T07:24:51.625Z,66.80
2018-09-24T07:27:25.633Z,66.90
2018-09-24T07:29:59.429Z,67.20
2018-09-24T07:32:33.172Z,66.90
2018-09-24T07:35:07.590Z,66.80
2018-09-24T07:37:41.608Z,66.60
2018-09-24T07:40:15.531Z,62.80
2018-09-24T07:42:49.287Z,63.70
2018-09-24T07:45:22.962Z,62.00
2018-09-24T07:47:56.701Z,62.60
2018-09-24T07:50:30.564Z,61.30
2018-09-24T07:53:04.317Z,60.90
2018-09-24T07:55:38.240Z,60.20
2018-09-24T07:58:12.135Z,60.50
2018-09-24T08:00:45.920Z,59.40
2018-09-24T08:03:19.761Z,57.40
2018-09-24T08:05:53.540Z,56.80
2018-09-24T08:08:27.326Z,58.90
2018-09-24T08:11:01.029Z,56.00
2018-09-24T08:13:34.928Z,57.10
2018-09-24T08:16:08.747Z,55.20
2018-09-24T08:18:42.575Z,55.70
2018-09-24T08:21:16.375Z,55.00
2018-09-24T08:23:50.109Z,55.10
2018-09-24T08:26:23.925Z,53.90
2018-09-24T08:28:57.922Z,55.10
2018-09-24T08:31:31.632Z,55.20
2018-09-24T08:34:05.401Z,53.50
2018-09-24T08:36:40.162Z,53.70
2018-09-24T08:39:14.173Z,52.60
2018-09-24T08:41:48.154Z,51.80
2018-09-24T08:44:21.992Z,52.20
2018-09-24T08:46:55.647Z,50.00
2018-09-24T08:49:29.451Z,50.80
2018-09-24T08:52:03.311Z,52.70
2018-09-24T08:54:37.164Z,52.40
2018-09-24T08:57:11.798Z,51.30
2018-09-24T08:59:45.697Z,51.30
2018-09-24T09:02:19.578Z,49.20
2018-09-24T09:04:53.219Z,49.90
2018-09-24T09:07:27.124Z,47.80
2018-09-24T09:10:00.990Z,48.70
2018-09-24T09:12:34.663Z,48.60
2018-09-24T09:15:08.655Z,47.10
2018-09-24T09:17:42.484Z,45.90
2018-09-24T09:20:16.307Z,47.10
2018-09-24T09:22:50.168Z,47.10
2018-09-24T09:25:23.912Z,47.90
2018-09-24T09:27:57.752Z,49.30
2018-09-24T09:30:31.505Z,47.20
2018-09-24T09:33:05.431Z,46.80
2018-09-24T09:35:39.317Z,47.10
2018-09-24T09:38:13.069Z,46.10
2018-09-24T09:40:46.958Z,46.50
2018-09-24T09:43:20.705Z,46.60
2018-09-24T09:45:54.577Z,45.80
2018-09-24T09:48:28.473Z,44.00
2018-09-24T09:51:02.169Z,44.70
2018-09-24T09:53:36.110Z,45.30
2018-09-24T09:56:09.946Z,45.70
2018-09-24T09:58:43.770Z,46.10
2018-09-24T10:01:17.695Z,45.10
2018-09-24T10:03:51.314Z,45.10
2018-09-24T10:06:25.007Z,45.00
2018-09-24T10:08:58.733Z,45.20
2018-09-24T10:11:32.700Z,44.70
2018-09-24T10:14:06.352Z,44.20
2018-09-24T10:16:40.048Z,44.00
2018-09-24T10:19:13.732Z,44.10
2018-09-24T10:21:47.482Z,43.70
2018-09-24T10:24:21.699Z,42.90
2018-09-24T10:26:55.439Z,42.60
2018-09-24T10:29:29.170Z,43.50
2018-09-24T10:32:02.876Z,43.40
2018-09-24T10:34:36.723Z,42.50
2018-09-24T10:37:10.452Z,40.20
2018-09-24T10:39:44.213Z,41.70
2018-09-24T10:42:17.957Z,42.50
2018-09-24T10:44:51.744Z,42.10
2018-09-24T10:47:25.533Z,43.10
2018-09-24T10:49:59.419Z,41.90
2018-09-24T10:52:33.040Z,41.50
2018-09-24T10:55:06.827Z,41.20
2018-09-24T10:57:40.910Z,41.70
2018-09-24T11:00:14.765Z,41.10
2018-09-24T11:02:48.497Z,40.80
2018-09-24T11:05:22.340Z,40.10
2018-09-24T11:07:56.208Z,39.80
2018-09-24T11:10:29.992Z,40.40
2018-09-24T11:13:03.673Z,39.60
2018-09-24T11:15:37.483Z,40.90
2018-09-24T11:18:11.138Z,39.10
2018-09-24T11:20:44.886Z,38.80
2018-09-24T11:23:18.737Z,40.70
2018-09-24T11:25:52.525Z,41.80
2018-09-24T11:28:26.432Z,42.10
2018-09-24T11:31:00.166Z,41.50
2018-09-24T11:33:33.959Z,38.30
2018-09-24T11:36:07.802Z,37.30
2018-09-24T11:38:41.629Z,37.40
2018-09-24T11:41:15.438Z,37.50
2018-09-24T11:43:49.243Z,37.30
2018-09-24T11:46:22.894Z,39.00
2018-09-24T11:48:56.592Z,39.10
2018-09-24T11:51:30.509Z,40.60
2018-09-24T11:54:04.414Z,40.40
2018-09-24T11:56:38.217Z,39.90
2018-09-24T11:59:11.947Z,40.20
2018-09-24T12:01:45.689Z,39.20
2018-09-24T12:04:19.483Z,38.60
2018-09-24T12:06:53.362Z,38.90
2018-09-24T12:09:27.336Z,39.20
2018-09-24T12:12:01.125Z,39.20
2018-09-24T12:14:35.051Z,38.70
2018-09-24T12:17:08.966Z,36.10
2018-09-24T12:19:42.686Z,36.20
2018-09-24T12:22:16.427Z,37.80
2018-09-24T12:24:50.133Z,35.70
2018-09-24T12:27:23.972Z,35.40
2018-09-24T12:29:57.758Z,34.50
2018-09-24T12:32:31.695Z,35.20
2018-09-24T12:35:05.478Z,35.80
2018-09-24T12:37:39.292Z,35.40
2018-09-24T12:40:13.255Z,36.90
2018-09-24T12:42:47.125Z,36.00
2018-09-24T12:45:21.015Z,36.60
2018-09-24T12:47:55.834Z,36.50
2018-09-24T12:50:29.430Z,35.60
2018-09-24T12:53:03.340Z,34.80
2018-09-24T12:55:36.988Z,33.30
2018-09-24T12:58:10.739Z,33.30
2018-09-24T13:00:44.491Z,33.60
2018-09-24T13:03:18.501Z,33.10
2018-09-24T13:05:52.237Z,32.60
2018-09-24T13:08:26.211Z,32.70
2018-09-24T13:11:00.082Z,33.40
2018-09-24T13:13:33.897Z,35.00
2018-09-24T13:16:07.571Z,36.20
2018-09-24T13:18:41.398Z,36.40
2018-09-24T13:21:15.276Z,36.00
2018-09-24T13:23:49.207Z,35.80
2018-09-24T13:26:22.841Z,36.40
2018-09-24T13:28:56.620Z,36.30
2018-09-24T13:31:30.366Z,36.60
2018-09-24T13:34:04.088Z,35.90
2018-09-24T13:36:37.807Z,36.20
2018-09-24T13:39:13.756Z,34.90
2018-09-24T13:41:48.474Z,34.70
2018-09-24T13:44:22.333Z,35.10
2018-09-24T13:46:55.993Z,34.30
2018-09-24T13:49:29.858Z,32.30
2018-09-24T13:52:03.560Z,31.80
2018-09-24T13:54:37.274Z,32.40
2018-09-24T13:57:11.410Z,33.20
2018-09-24T13:59:45.230Z,33.60
2018-09-24T14:02:19.059Z,33.90
2018-09-24T14:04:52.942Z,34.20
2018-09-24T14:07:26.764Z,35.20
2018-09-24T14:10:00.733Z,34.20
2018-09-24T14:12:34.332Z,33.50
2018-09-24T14:15:07.989Z,33.90
2018-09-24T14:17:41.694Z,34.60
2018-09-24T14:20:15.573Z,32.80
2018-09-24T14:22:49.260Z,32.10
2018-09-24T14:25:23.198Z,31.90
2018-09-24T14:27:57.066Z,28.80
2018-09-24T14:30:30.732Z,30.20
2018-09-24T14:33:04.459Z,30.20
2018-09-24T14:35:38.258Z,30.70
2018-09-24T14:38:12.272Z,31.20
2018-09-24T14:40:46.201Z,31.90
2018-09-24T14:43:19.929Z,31.30
2018-09-24T14:45:53.938Z,30.50
2018-09-24T14:48:27.871Z,30.80
2018-09-24T14:51:01.748Z,29.70
2018-09-24T14:53:36.237Z,28.80
2018-09-24T14:56:10.054Z,28.60
2018-09-24T14:58:43.797Z,27.50
2018-09-24T15:01:17.669Z,28.10
2018-09-24T15:03:51.507Z,28.00
2018-09-24T15:06:25.290Z,28.30
2018-09-24T15:08:59.147Z,27.90
2018-09-24T15:11:32.949Z,28.10
2018-09-24T15:14:06.880Z,28.40
2018-09-24T15:16:40.609Z,28.20
2018-09-24T15:19:14.573Z,28.40
2018-09-24T15:21:48.614Z,28.40
2018-09-24T15:24:22.434Z,28.80
2018-09-24T15:26:56.227Z,29.70
2018-09-24T15:29:30.120Z,30.10
2018-09-24T15:32:03.800Z,29.70
2018-09-24T15:34:37.670Z,30.10
2018-09-24T15:37:11.495Z,30.60
2018-09-24T15:39:45.294Z,30.50
2018-09-24T15:42:19.767Z,31.60
2018-09-24T15:44:53.627Z,31.80
2018-09-24T15:47:27.331Z,33.30
2018-09-24T15:50:01.382Z,32.10
2018-09-24T15:52:35.205Z,31.70
2018-09-24T15:55:09.423Z,32.20
2018-09-24T15:57:43.193Z,32.00
2018-09-24T16:00:17.096Z,32.30
2018-09-24T16:02:51.136Z,31.90
2018-09-24T16:05:25.043Z,31.80
2018-09-24T16:07:58.903Z,30.60
2018-09-24T16:10:32.699Z,30.50
2018-09-24T16:13:06.436Z,30.50
2018-09-24T16:15:40.180Z,30.50
2018-09-24T16:18:13.954Z,30.50
2018-09-24T16:20:47.750Z,30.70
2018-09-24T16:23:21.414Z,31.10
2018-09-24T16:25:55.414Z,31.70
2018-09-24T16:28:29.159Z,31.90
2018-09-24T16:31:02.893Z,32.10
2018-09-24T16:33:36.875Z,32.50
2018-09-24T16:36:10.714Z,32.70
2018-09-24T16:38:44.533Z,32.80
2018-09-24T16:41:18.424Z,33.00
2018-09-24T16:43:52.231Z,33.30
2018-09-24T16:46:25.980Z,33.20
2018-09-24T16:48:59.683Z,33.50
2018-09-24T16:51:33.601Z,33.90
2018-09-24T16:54:07.429Z,33.60
2018-09-24T16:56:42.066Z,33.60
2018-09-24T16:59:15.860Z,34.60
2018-09-24T17:01:49.758Z,34.40
2018-09-24T17:04:23.846Z,34.40
2018-09-24T17:06:57.596Z,35.00
2018-09-24T17:09:31.319Z,35.00
2018-09-24T17:12:05.778Z,35.90
2018-09-24T17:14:39.515Z,35.40
2018-09-24T17:17:13.447Z,35.50
2018-09-24T17:19:47.398Z,35.60
2018-09-24T17:22:21.297Z,36.40
2018-09-24T17:24:55.095Z,36.60
2018-09-24T17:27:28.862Z,36.70
2018-09-24T17:30:02.710Z,37.10
2018-09-24T17:32:36.429Z,37.10
2018-09-24T17:35:10.427Z,37.50
2018-09-24T17:37:44.319Z,37.60
2018-09-24T17:40:18.107Z,38.10
2018-09-24T17:42:51.799Z,38.80
2018-09-24T17:45:25.567Z,38.80
2018-09-24T17:48:00.001Z,40.50
2018-09-24T17:50:33.708Z,42.40
2018-09-24T17:53:07.642Z,42.40
2018-09-24T17:55:41.372Z,43.90
2018-09-24T17:58:15.205Z,42.80
2018-09-24T18:00:49.138Z,44.10
2018-09-24T18:03:22.849Z,44.40
2018-09-24T18:05:56.660Z,44.10
2018-09-24T18:08:30.405Z,44.40
2018-09-24T18:11:04.111Z,44.60
2018-09-24T18:13:38.078Z,44.80
2018-09-24T18:16:12.328Z,45.20
2018-09-24T18:18:46.245Z,45.70
2018-09-24T18:21:19.956Z,46.80
2018-09-24T18:23:53.864Z,46.90
2018-09-24T18:26:27.709Z,47.30
2018-09-24T18:29:02.496Z,47.60
2018-09-24T18:31:36.408Z,47.50
2018-09-24T18:34:10.072Z,47.90
2018-09-24T18:36:43.805Z,48.20
2018-09-24T18:39:17.832Z,48.60
2018-09-24T18:41:51.568Z,48.90
2018-09-24T18:44:25.459Z,49.20
2018-09-24T18:46:59.246Z,49.90
2018-09-24T18:49:33.078Z,49.70
2018-09-24T18:52:06.822Z,51.20
2018-09-24T18:54:40.876Z,51.30
2018-09-24T18:57:14.924Z,51.60
2018-09-24T18:59:48.761Z,52.00
2018-09-24T19:02:22.662Z,52.20
2018-09-24T19:04:56.672Z,52.10
2018-09-24T19:07:30.621Z,52.50
2018-09-24T19:10:04.611Z,52.40
2018-09-24T19:12:38.375Z,52.60
2018-09-24T19:15:12.507Z,52.70
2018-09-24T19:17:46.445Z,52.40
2018-09-24T19:20:20.320Z,52.60
2018-09-24T19:22:54.871Z,53.00
2018-09-24T19:25:28.851Z,53.40
2018-09-24T19:28:02.548Z,53.80
2018-09-24T19:30:36.402Z,54.00
2018-09-24T19:33:10.343Z,54.40
2018-09-24T19:35:44.343Z,55.00
2018-09-24T19:38:18.253Z,55.10
2018-09-24T19:40:52.123Z,55.40
2018-09-24T19:43:25.850Z,55.20
2018-09-24T19:46:00.026Z,55.10
2018-09-24T19:48:33.878Z,55.20
2018-09-24T19:51:07.688Z,54.80
2018-09-24T19:53:41.549Z,55.20
2018-09-24T19:56:15.282Z,55.20
2018-09-24T19:58:49.363Z,55.20
2018-09-24T20:01:23.322Z,55.60
2018-09-24T20:03:57.261Z,55.70
2018-09-24T20:06:31.139Z,55.60
2018-09-24T20:09:05.146Z,56.50
2018-09-24T20:11:38.846Z,56.80
2018-09-24T20:14:12.802Z,57.20
2018-09-24T20:16:46.837Z,57.60
2018-09-24T20:19:20.713Z,57.90
2018-09-24T20:21:54.561Z,58.10
2018-09-24T20:24:28.556Z,58.10
2018-09-24T20:27:02.229Z,58.50
2018-09-24T20:29:36.065Z,58.70
2018-09-24T20:32:09.762Z,58.70
2018-09-24T20:34:43.657Z,58.90
2018-09-24T20:37:17.518Z,58.80
2018-09-24T20:39:51.479Z,58.20
2018-09-24T20:42:25.447Z,58.40
2018-09-24T20:44:59.145Z,58.40
2018-09-24T20:47:33.161Z,58.40
2018-09-24T20:50:07.776Z,58.60
2018-09-24T20:52:41.592Z,58.80
2018-09-24T20:55:15.413Z,58.40
2018-09-24T20:57:49.231Z,58.30
2018-09-24T21:00:22.950Z,58.30
2018-09-24T21:02:56.770Z,58.80
2018-09-24T21:05:37.351Z,58.80
2018-09-24T21:08:11.353Z,59.00
2018-09-24T21:10:45.113Z,59.20
2018-09-24T21:13:18.827Z,59.10
2018-09-24T21:15:52.858Z,59.30
2018-09-24T21:18:26.750Z,59.50
2018-09-24T21:21:00.915Z,59.60
2018-09-24T21:23:34.774Z,59.40
2018-09-24T21:26:08.720Z,59.70
2018-09-24T21:28:42.534Z,59.30
2018-09-24T21:31:16.452Z,61.10
2018-09-24T21:33:50.435Z,60.10
2018-09-24T21:36:24.503Z,60.10
2018-09-24T21:38:58.207Z,60.20
2018-09-24T21:41:32.149Z,60.60
2018-09-24T21:44:06.026Z,62.00
2018-09-24T21:46:39.991Z,62.70
2018-09-24T21:49:13.821Z,62.60
2018-09-24T21:51:47.580Z,62.50
2018-09-24T21:54:21.552Z,61.90
2018-09-24T21:56:55.385Z,61.40
2018-09-24T21:59:29.337Z,61.70
2018-09-24T22:02:03.195Z,62.50
2018-09-24T22:04:37.020Z,64.00
2018-09-24T22:07:11.089Z,64.00
2018-09-24T22:09:44.902Z,63.80
2018-09-24T22:12:18.853Z,64.60
2018-09-24T22:14:52.607Z,65.10
2018-09-24T22:17:26.504Z,65.70
2018-09-24T22:20:01.457Z,66.20
2018-09-24T22:22:35.455Z,66.10
2018-09-24T22:25:09.378Z,66.40
2018-09-24T22:27:43.221Z,66.10
2018-09-24T22:30:17.031Z,66.20
2018-09-24T22:32:50.836Z,65.60
2018-09-24T22:35:24.518Z,66.00
2018-09-24T22:37:58.410Z,65.90
2018-09-24T22:40:32.105Z,65.30
2018-09-24T22:43:05.910Z,65.30
2018-09-24T22:45:39.766Z,65.80
2018-09-24T22:48:13.542Z,66.00
2018-09-24T22:50:47.460Z,66.40
2018-09-24T22:53:21.155Z,67.00
2018-09-24T22:55:54.984Z,66.40
2018-09-24T22:58:28.694Z,66.80
2018-09-24T23:01:02.474Z,66.70
2018-09-24T23:03:36.395Z,67.10
2018-09-24T23:06:10.234Z,67.20
2018-09-24T23:08:43.958Z,67.60
2018-09-24T23:11:17.832Z,67.30
2018-09-24T23:13:51.514Z,68.10
2018-09-24T23:16:25.235Z,68.30
2018-09-24T23:18:59.094Z,68.30
2018-09-24T23:21:32.944Z,68.20
2018-09-24T23:24:06.726Z,68.40
2018-09-24T23:26:40.562Z,68.60
2018-09-24T23:29:14.468Z,68.40
2018-09-24T23:31:48.717Z,68.80
2018-09-24T23:34:22.641Z,68.20
2018-09-24T23:36:56.355Z,68.30
2018-09-24T23:39:30.003Z,68.30
2018-09-24T23:42:03.807Z,68.20
2018-09-24T23:44:37.684Z,67.80
2018-09-24T23:47:11.748Z,68.30
2018-09-24T23:49:45.829Z,69.10
2018-09-24T23:52:19.554Z,69.40
2018-09-24T23:54:53.392Z,70.00
2018-09-24T23:57:27.219Z,70.20
